Time;durP1;ratioP1;P1;durP2;ratioP2;P2;SDS_P1;SDS_P2;PMS_P1;PMS_P2;Temp;Humidity;BMP_temperature;BMP_pressure;BME280_temperature;BME280_humidity;BME280_pressure;Samples;Min_cycle;Max_cycle;Signal;HPM_P1;HPM_P2
2020/12/16 00:02:02;;;;;;;89.67;44.70;;;;;;;2.04;72.58;99200.77;2255038;78;21137;-75
2020/12/16 00:05:03;;;;;;;94.47;47.77;;;;;;;1.93;72.80;99198.05;2254904;78;21133;-75
2020/12/16 00:08:04;;;;;;;97.87;48.57;;;;;;;1.83;73.15;99198.86;2254593;78;21273;-75
2020/12/16 00:11:05;;;;;;;88.63;46.47;;;;;;;1.75;73.37;99206.59;2254590;78;21128;-74
2020/12/16 00:14:06;;;;;;;81.97;43.47;;;;;;;1.68;73.66;99209.61;2254022;78;21280;-75
2020/12/16 00:17:08;;;;;;;86.83;45.30;;;;;;;1.63;73.85;99216.61;2253891;78;21251;-75
2020/12/16 00:20:09;;;;;;;89.43;46.67;;;;;;;1.58;73.98;99213.80;2256406;79;21419;-75
2020/12/16 00:23:10;;;;;;;91.37;45.87;;;;;;;1.55;74.13;99211.95;2259902;78;21129;-75
2020/12/16 00:26:11;;;;;;;86.80;46.33;;;;;;;1.53;74.32;99218.70;2260146;78;21125;-75
2020/12/16 00:29:12;;;;;;;91.53;47.10;;;;;;;1.50;74.46;99212.11;2260035;78;21114;-74
2020/12/16 00:32:13;;;;;;;88.60;47.60;;;;;;;1.49;74.66;99218.45;2259870;78;21189;-76
2020/12/16 00:35:14;;;;;;;81.37;41.43;;;;;;;1.46;74.71;99223.44;2260080;78;21117;-76
2020/12/16 00:38:15;;;;;;;86.13;44.13;;;;;;;1.43;74.86;99221.98;2260864;78;21438;-76
2020/12/16 00:41:16;;;;;;;88.53;46.53;;;;;;;1.43;74.96;99228.42;2260457;78;21132;-75
2020/12/16 00:44:17;;;;;;;86.00;45.03;;;;;;;1.44;74.94;99227.62;2260122;78;21136;-76
2020/12/16 00:47:18;;;;;;;91.50;45.53;;;;;;;1.46;75.03;99229.88;2259312;78;21438;-76
2020/12/16 00:50:19;;;;;;;91.80;47.50;;;;;;;1.41;75.17;99227.05;2259427;78;21359;-77
2020/12/16 00:53:20;;;;;;;94.90;48.50;;;;;;;1.42;75.28;99229.22;2258990;78;21185;-77
2020/12/16 00:56:22;;;;;;;91.93;45.73;;;;;;;1.41;75.37;99224.48;2260242;79;21113;-77
2020/12/16 00:59:23;;;;;;;87.40;46.70;;;;;;;1.42;75.54;99225.37;2260194;78;21113;-77
2020/12/16 01:02:24;;;;;;;87.83;44.83;;;;;;;1.44;75.53;99236.22;2260613;78;21403;-78
2020/12/16 01:05:25;;;;;;;92.13;45.40;;;;;;;1.49;75.54;99233.48;2259654;78;21114;-77
2020/12/16 01:08:26;;;;;;;88.30;46.10;;;;;;;1.50;75.58;99224.97;2260035;78;21145;-77
2020/12/16 01:11:27;;;;;;;153.73;81.77;;;;;;;1.54;75.62;99217.89;2259732;78;21137;-77
2020/12/16 01:14:28;;;;;;;122.77;61.93;;;;;;;3.98;86.19;99212.17;2259829;78;21117;-77
2020/12/16 01:17:29;;;;;;;92.07;48.87;;;;;;;6.26;76.41;99203.13;2260515;78;21175;-77
2020/12/16 01:20:30;;;;;;;91.60;47.70;;;;;;;5.32;70.85;99209.97;2260851;78;21419;-77
2020/12/16 01:23:33;;;;;;;90.43;48.53;;;;;;;4.35;70.13;99215.53;2260929;78;21658;-78
2020/12/16 01:26:34;;;;;;;90.80;48.73;;;;;;;3.67;70.49;99227.59;2261126;78;21113;-77
2020/12/16 01:29:38;;;;;;;89.60;45.80;;;;;;;3.21;71.08;99225.88;2260959;78;21118;-78
2020/12/16 01:32:39;;;;;;;96.27;47.20;;;;;;;2.90;71.51;99227.81;2260164;78;21165;-77
2020/12/16 01:35:40;;;;;;;85.77;45.53;;;;;;;2.68;71.94;99224.61;2260451;78;21465;-77
2020/12/16 01:38:41;;;;;;;90.07;47.47;;;;;;;2.52;72.29;99230.27;2259959;78;21121;-77
2020/12/16 01:41:42;;;;;;;93.63;48.73;;;;;;;2.38;72.58;99229.98;2259949;78;21125;-77
2020/12/16 01:44:43;;;;;;;94.00;49.20;;;;;;;2.25;72.87;99228.89;2260351;78;21399;-77
2020/12/16 01:47:44;;;;;;;87.47;47.10;;;;;;;2.12;73.16;99231.25;2260363;78;21101;-77
2020/12/16 01:50:45;;;;;;;99.10;50.00;;;;;;;2.00;73.37;99231.91;2261016;78;21121;-77
2020/12/16 01:53:46;;;;;;;97.77;49.27;;;;;;;1.91;73.68;99231.44;2260983;78;21161;-77
2020/12/16 01:56:48;;;;;;;91.47;46.73;;;;;;;1.86;73.90;99241.50;2261031;79;21152;-77
2020/12/16 01:59:49;;;;;;;92.43;48.43;;;;;;;1.84;74.08;99244.39;2260562;78;21153;-77
2020/12/16 02:02:50;;;;;;;98.57;50.40;;;;;;;1.81;74.16;99242.95;2260472;78;21097;-77
2020/12/16 02:05:51;;;;;;;93.87;49.37;;;;;;;1.79;74.34;99238.12;2261340;78;21149;-77
2020/12/16 02:08:52;;;;;;;92.73;49.07;;;;;;;1.78;74.40;99250.91;2260949;79;21149;-77
2020/12/16 02:11:53;;;;;;;93.93;50.43;;;;;;;1.76;74.56;99246.97;2261234;78;21117;-78
2020/12/16 02:14:54;;;;;;;93.20;48.40;;;;;;;1.76;74.63;99246.97;2260668;78;21077;-78
2020/12/16 02:17:55;;;;;;;102.50;48.43;;;;;;;1.77;74.70;99254.28;2262116;78;21098;-78
2020/12/16 02:20:56;;;;;;;96.57;46.93;;;;;;;1.78;74.74;99250.91;2258571;78;21118;-78
2020/12/16 02:23:57;;;;;;;85.80;45.90;;;;;;;1.75;74.73;99250.75;2255703;78;21165;-78
2020/12/16 02:26:58;;;;;;;109.13;50.07;;;;;;;1.73;74.76;99245.48;2256185;78;21146;-79
2020/12/16 02:29:59;;;;;;;104.30;51.40;;;;;;;1.69;74.87;99244.84;2255978;78;21133;-78
2020/12/16 02:33:00;;;;;;;96.97;50.67;;;;;;;1.69;74.99;99243.95;2256159;78;21164;-79
2020/12/16 02:36:01;;;;;;;105.90;53.40;;;;;;;1.66;75.10;99251.11;2256226;78;21399;-78
2020/12/16 02:39:02;;;;;;;105.20;49.87;;;;;;;1.63;75.18;99239.37;2256764;78;21141;-79
2020/12/16 02:42:04;;;;;;;91.97;46.37;;;;;;;1.59;75.21;99244.75;2255784;78;21125;-78
2020/12/16 02:45:05;;;;;;;113.13;64.53;;;;;;;1.58;75.27;99239.53;2256510;78;21086;-78
2020/12/16 02:48:08;;;;;;;121.73;62.90;;;;;;;2.25;85.49;99235.33;2255742;78;21125;-79
2020/12/16 02:51:09;;;;;;;93.80;50.67;;;;;;;6.40;87.93;99228.23;2256209;79;21140;-78
2020/12/16 02:54:10;;;;;;;93.17;48.23;;;;;;;6.48;72.64;99220.71;2255858;78;21169;-79
2020/12/16 02:57:12;;;;;;;93.87;47.70;;;;;;;5.19;69.92;99220.64;2256448;78;21174;-79
2020/12/16 03:00:14;;;;;;;101.30;51.80;;;;;;;4.22;69.83;99226.14;2255597;78;21447;-77
2020/12/16 03:03:15;;;;;;;92.43;51.47;;;;;;;3.58;70.52;99232.76;2254321;78;21246;-78
2020/12/16 03:06:16;;;;;;;100.07;52.27;;;;;;;3.12;71.10;99231.48;2255593;78;21122;-78
2020/12/16 03:09:17;;;;;;;93.93;47.53;;;;;;;2.78;71.61;99232.86;2255001;78;21145;-79
2020/12/16 03:12:18;;;;;;;99.37;48.80;;;;;;;2.53;72.13;99233.32;2255493;79;21157;-78
2020/12/16 03:15:19;;;;;;;96.80;49.57;;;;;;;2.39;72.55;99233.45;2255336;78;21133;-78
2020/12/16 03:18:20;;;;;;;103.10;51.00;;;;;;;2.29;72.87;99232.10;2255200;78;21247;-78
2020/12/16 03:21:21;;;;;;;93.47;48.90;;;;;;;2.21;73.12;99236.87;2255067;78;21419;-78
2020/12/16 03:24:22;;;;;;;95.50;48.87;;;;;;;2.16;73.48;99238.73;2255300;79;21133;-78
2020/12/16 03:27:25;;;;;;;91.77;46.70;;;;;;;2.14;73.66;99242.91;2255419;78;21605;-78
2020/12/16 03:30:26;;;;;;;94.33;48.90;;;;;;;2.09;73.80;99241.80;2254537;79;21094;-78
2020/12/16 03:33:28;;;;;;;100.23;49.67;;;;;;;2.04;73.98;99250.57;2254213;78;21199;-79
2020/12/16 03:36:29;;;;;;;89.30;47.97;;;;;;;2.03;74.09;99254.36;2254578;78;21395;-78
2020/12/16 03:39:30;;;;;;;84.87;45.97;;;;;;;2.04;74.18;99257.41;2253804;78;21236;-78
2020/12/16 03:42:31;;;;;;;81.73;43.90;;;;;;;2.09;74.26;99263.28;2253958;79;21248;-78
2020/12/16 03:45:32;;;;;;;83.77;43.40;;;;;;;2.12;74.24;99259.58;2254829;78;21411;-77
2020/12/16 03:48:34;;;;;;;89.80;44.47;;;;;;;2.15;74.34;99259.73;2255134;78;21118;-78
2020/12/16 03:51:35;;;;;;;79.53;42.33;;;;;;;2.19;74.36;99260.78;2255305;78;21549;-78
2020/12/16 03:54:36;;;;;;;84.30;43.73;;;;;;;2.18;74.25;99274.45;2255737;78;21129;-78
2020/12/16 03:57:37;;;;;;;85.73;42.07;;;;;;;2.17;74.20;99273.58;2255589;79;21121;-78
2020/12/16 04:00:38;;;;;;;87.00;43.17;;;;;;;2.16;74.21;99270.92;2254921;78;21114;-79
2020/12/16 04:03:39;;;;;;;83.33;42.83;;;;;;;2.18;74.18;99278.32;2255228;78;21110;-78
2020/12/16 04:06:41;;;;;;;92.17;44.67;;;;;;;2.19;74.17;99277.11;2255370;78;21094;-78
2020/12/16 04:09:42;;;;;;;103.90;46.60;;;;;;;2.20;74.18;99276.71;2255148;78;21252;-79
2020/12/16 04:12:43;;;;;;;85.47;44.17;;;;;;;2.19;74.26;99274.54;2255078;78;21150;-79
2020/12/16 04:15:44;;;;;;;78.50;41.17;;;;;;;2.23;74.37;99278.16;2255383;78;21395;-78
2020/12/16 04:18:45;;;;;;;77.73;38.53;;;;;;;2.26;74.37;99275.73;2255312;78;21264;-78
2020/12/16 04:21:46;;;;;;;57.10;29.77;;;;;;;2.25;74.39;99273.97;2261141;78;21169;-77
2020/12/16 04:24:47;;;;;;;52.60;29.30;;;;;;;2.28;74.38;99274.53;2263997;78;21398;-78
2020/12/16 04:27:48;;;;;;;53.13;29.60;;;;;;;2.34;74.37;99276.13;2263427;78;21153;-77
2020/12/16 04:30:49;;;;;;;46.83;25.20;;;;;;;2.37;74.33;99284.89;2263578;78;21121;-78
2020/12/16 04:33:50;;;;;;;46.73;23.23;;;;;;;2.39;74.27;99287.55;2263684;78;21282;-78
2020/12/16 04:36:51;;;;;;;50.77;26.50;;;;;;;2.39;74.24;99284.57;2264048;78;21121;-78
2020/12/16 04:39:52;;;;;;;69.97;33.20;;;;;;;2.38;74.26;99287.95;2264498;79;21251;-75
2020/12/16 04:42:53;;;;;;;64.47;35.20;;;;;;;2.32;74.12;99288.93;2263278;78;21390;-79
2020/12/16 04:45:54;;;;;;;71.83;37.83;;;;;;;2.27;74.12;99290.79;2262491;78;21109;-78
2020/12/16 04:48:55;;;;;;;77.40;38.50;;;;;;;2.21;74.08;99290.07;2262190;79;21593;-78
2020/12/16 04:51:56;;;;;;;70.67;38.27;;;;;;;2.14;74.09;99294.42;2262569;78;21284;-80
2020/12/16 04:54:57;;;;;;;78.70;38.93;;;;;;;2.11;74.21;99294.27;2261881;78;21091;-79
2020/12/16 04:58:00;;;;;;;80.93;39.37;;;;;;;2.08;74.24;99299.25;2263200;79;21239;-79
2020/12/16 05:01:01;;;;;;;73.37;39.40;;;;;;;2.04;74.43;99298.20;2262991;78;21445;-79
2020/12/16 05:04:02;;;;;;;68.40;36.30;;;;;;;2.05;74.43;99299.09;2263694;78;21133;-78
2020/12/16 05:07:03;;;;;;;77.00;38.80;;;;;;;2.01;74.47;99292.90;2262769;78;21252;-78
2020/12/16 05:10:04;;;;;;;75.70;35.60;;;;;;;2.00;74.60;99295.39;2262738;78;21276;-78
2020/12/16 05:13:05;;;;;;;82.20;40.27;;;;;;;1.97;74.65;99297.81;2263142;78;21922;-78
2020/12/16 05:16:06;;;;;;;81.50;38.90;;;;;;;2.00;74.69;99301.43;2262347;78;21231;-78
2020/12/16 05:19:07;;;;;;;71.67;39.17;;;;;;;2.01;74.59;99296.77;2263468;78;21243;-78
2020/12/16 05:22:08;;;;;;;152.03;88.53;;;;;;;2.02;74.63;99300.22;2259384;78;21160;-77
2020/12/16 05:25:09;;;;;;;92.17;51.00;;;;;;;2.05;74.84;99293.55;2256981;78;21121;-77
2020/12/16 05:28:10;;;;;;;82.73;41.87;;;;;;;2.05;74.67;99297.80;2258821;78;21121;-78
2020/12/16 05:31:11;;;;;;;101.27;44.00;;;;;;;2.03;74.66;99304.16;2258146;78;21403;-78
2020/12/16 05:34:12;;;;;;;100.80;44.87;;;;;;;1.99;74.63;99303.92;2258001;79;21295;-79
2020/12/16 05:37:13;;;;;;;181.83;67.47;;;;;;;1.92;74.68;99302.72;2259210;78;21106;-78
2020/12/16 05:40:14;;;;;;;144.17;56.90;;;;;;;1.94;74.86;99306.25;2258420;78;21239;-77
2020/12/16 05:43:15;;;;;;;109.43;50.83;;;;;;;2.00;74.90;99315.99;2258763;78;21764;-78
2020/12/16 05:46:17;;;;;;;98.80;47.60;;;;;;;2.00;74.76;99319.45;2259484;78;21148;-77
2020/12/16 05:49:18;;;;;;;179.27;96.60;;;;;;;1.97;74.65;99321.87;2257455;78;21734;-77
2020/12/16 05:52:19;;;;;;;130.00;71.70;;;;;;;1.91;74.80;99322.42;2257102;79;21314;-78
2020/12/16 05:55:20;;;;;;;85.33;45.67;;;;;;;1.88;74.80;99323.55;2258031;78;21238;-78
2020/12/16 05:58:21;;;;;;;87.23;42.10;;;;;;;1.83;74.88;99333.12;2257200;78;21570;-78
2020/12/16 06:01:22;;;;;;;79.80;41.53;;;;;;;1.81;74.87;99332.16;2257228;78;21141;-77
2020/12/16 06:04:23;;;;;;;81.87;42.03;;;;;;;1.76;74.79;99331.02;2257679;78;21236;-77
2020/12/16 06:07:24;;;;;;;78.23;40.37;;;;;;;1.70;74.80;99335.40;2257993;78;21279;-77
2020/12/16 06:10:25;;;;;;;79.13;41.93;;;;;;;1.65;74.91;99336.84;2258255;78;21573;-78
2020/12/16 06:13:26;;;;;;;81.80;43.67;;;;;;;1.59;74.88;99346.80;2257034;78;21279;-76
2020/12/16 06:16:27;;;;;;;83.47;42.93;;;;;;;1.50;74.97;99351.44;2257777;78;21252;-76
2020/12/16 06:19:28;;;;;;;74.97;38.77;;;;;;;1.47;75.22;99357.70;2257933;78;21110;-77
2020/12/16 06:22:30;;;;;;;76.03;40.47;;;;;;;1.44;75.04;99359.70;2253718;78;21535;-77
2020/12/16 06:25:31;;;;;;;107.27;53.40;;;;;;;1.41;74.94;99355.67;2251021;78;21256;-78
2020/12/16 06:28:33;;;;;;;85.90;45.77;;;;;;;1.42;75.15;99366.45;2251739;79;21676;-77
2020/12/16 06:31:35;;;;;;;87.03;44.13;;;;;;;1.44;75.22;99361.39;2250660;78;21250;-77
2020/12/16 06:34:36;;;;;;;53.27;31.40;;;;;;;1.46;75.07;99362.36;2251237;78;21113;-76
2020/12/16 06:37:37;;;;;;;47.17;26.83;;;;;;;1.54;75.68;99364.95;2251783;78;21117;-76
2020/12/16 06:40:38;;;;;;;114.13;61.80;;;;;;;1.61;75.66;99355.48;2251699;78;21240;-79
2020/12/16 06:43:39;;;;;;;54.07;30.73;;;;;;;1.64;75.34;99349.22;2251492;78;21130;-76
2020/12/16 06:46:40;;;;;;;53.63;30.97;;;;;;;1.66;75.24;99356.62;2251940;78;21275;-76
2020/12/16 06:49:42;;;;;;;57.80;30.40;;;;;;;1.65;75.13;99358.71;2251484;78;21256;-76
2020/12/16 06:52:43;;;;;;;58.50;32.87;;;;;;;1.67;75.03;99370.38;2251104;79;21299;-77
2020/12/16 06:55:44;;;;;;;63.73;34.23;;;;;;;1.64;74.95;99374.95;2251031;78;21244;-76
2020/12/16 06:58:45;;;;;;;57.70;32.43;;;;;;;1.64;75.16;99375.35;2250964;78;21094;-76
2020/12/16 07:01:46;;;;;;;72.13;34.27;;;;;;;1.65;75.13;99383.16;2251192;78;21255;-76
2020/12/16 07:04:47;;;;;;;80.67;37.43;;;;;;;1.69;75.34;99378.66;2250673;78;21400;-77
2020/12/16 07:07:48;;;;;;;64.60;32.90;;;;;;;1.71;75.27;99382.61;2250893;78;21137;-76
2020/12/16 07:10:49;;;;;;;53.50;29.57;;;;;;;1.73;75.33;99392.19;2250359;78;21260;-76
2020/12/16 07:13:50;;;;;;;64.67;34.40;;;;;;;1.70;75.30;99390.73;2250872;79;21288;-76
2020/12/16 07:16:51;;;;;;;71.60;39.60;;;;;;;1.68;75.32;99391.05;2251078;78;21114;-77
2020/12/16 07:19:53;;;;;;;68.30;36.90;;;;;;;1.66;75.39;99390.08;2251402;79;21236;-75
2020/12/16 07:22:54;;;;;;;77.90;39.27;;;;;;;1.65;75.26;99387.02;2256059;78;21125;-76
2020/12/16 07:25:55;;;;;;;83.03;36.57;;;;;;;1.60;75.41;99385.88;2257682;78;21317;-77
2020/12/16 07:28:56;;;;;;;65.23;32.67;;;;;;;1.61;75.50;99394.08;2257771;78;21435;-75
2020/12/16 07:31:57;;;;;;;58.97;30.77;;;;;;;1.62;75.34;99379.12;2256350;78;21299;-76
2020/12/16 07:34:58;;;;;;;63.10;31.57;;;;;;;1.59;75.23;99385.39;2256881;78;21255;-75
2020/12/16 07:37:59;;;;;;;57.93;32.60;;;;;;;1.57;75.26;99387.00;2257383;78;21240;-75
2020/12/16 07:41:00;;;;;;;60.43;32.37;;;;;;;1.58;75.40;99393.52;2257730;78;21127;-75
2020/12/16 07:44:01;;;;;;;60.70;33.47;;;;;;;1.59;75.39;99389.25;2257535;78;21266;-75
2020/12/16 07:47:03;;;;;;;70.10;33.40;;;;;;;1.55;75.30;99388.59;2257523;78;21149;-74
2020/12/16 07:50:04;;;;;;;67.60;37.10;;;;;;;1.54;75.24;99382.97;2257679;79;21661;-75
2020/12/16 07:53:05;;;;;;;73.77;38.67;;;;;;;1.54;75.17;99385.53;2257581;78;21280;-75
2020/12/16 07:56:07;;;;;;;55.50;30.07;;;;;;;1.55;75.09;99389.48;2257382;78;21129;-73
2020/12/16 07:59:08;;;;;;;60.13;32.13;;;;;;;1.57;75.01;99392.14;2257284;78;21687;-75
2020/12/16 08:02:09;;;;;;;49.60;29.20;;;;;;;1.58;75.12;99392.63;2257225;78;21109;-75
2020/12/16 08:05:10;;;;;;;52.27;30.30;;;;;;;1.61;75.19;99391.51;2256866;78;21248;-75
2020/12/16 08:08:11;;;;;;;51.97;29.03;;;;;;;1.60;75.17;99392.31;2256484;78;21557;-76
2020/12/16 08:11:12;;;;;;;83.13;39.10;;;;;;;1.62;75.07;99406.15;2256322;78;21129;-74
2020/12/16 08:14:13;;;;;;;50.13;28.50;;;;;;;1.65;75.01;99401.17;2256517;78;21288;-75
2020/12/16 08:17:15;;;;;;;65.97;31.33;;;;;;;1.70;74.89;99402.31;2255744;78;21435;-75
2020/12/16 08:20:16;;;;;;;55.53;29.37;;;;;;;1.73;74.92;99411.48;2256654;78;21670;-75
2020/12/16 08:23:17;;;;;;;52.50;31.23;;;;;;;1.78;75.06;99406.23;2256414;78;21272;-76
2020/12/16 08:26:18;;;;;;;51.60;29.67;;;;;;;1.82;74.90;99414.61;2257318;78;21376;-75
2020/12/16 08:29:19;;;;;;;60.90;37.93;;;;;;;1.88;75.00;99412.77;2257791;78;21121;-75
2020/12/16 08:32:20;;;;;;;62.20;35.43;;;;;;;2.01;75.04;99412.63;2256613;79;21276;-75
2020/12/16 08:35:27;;;;;;;43.40;27.03;;;;;;;2.12;74.96;99413.21;2257115;79;21065;-75
2020/12/16 08:38:29;;;;;;;46.37;25.63;;;;;;;2.26;74.88;99414.84;2256478;78;21243;-76
2020/12/16 08:41:30;;;;;;;53.70;28.77;;;;;;;2.35;74.79;99416.61;2256886;79;21236;-77
2020/12/16 08:44:31;;;;;;;53.73;29.20;;;;;;;2.46;74.83;99422.33;2257202;78;21219;-76
2020/12/16 08:47:32;;;;;;;45.50;27.20;;;;;;;2.56;74.80;99419.03;2256977;78;21153;-75
2020/12/16 08:50:33;;;;;;;53.93;31.03;;;;;;;2.65;74.76;99416.08;2257362;78;21125;-76
2020/12/16 08:53:35;;;;;;;54.50;31.20;;;;;;;2.79;74.70;99427.98;2257671;79;21275;-76
2020/12/16 08:56:37;;;;;;;31.17;20.53;;;;;;;2.91;74.64;99426.44;2257707;78;21121;-77
2020/12/16 08:59:39;;;;;;;38.87;23.40;;;;;;;3.05;74.46;99433.19;2257341;78;21090;-76
2020/12/16 09:02:40;;;;;;;29.47;20.60;;;;;;;3.18;74.23;99431.70;2256620;78;21094;-76
2020/12/16 09:05:41;;;;;;;23.20;15.40;;;;;;;3.32;73.96;99437.95;2256457;78;21085;-78
2020/12/16 09:08:42;;;;;;;28.40;16.03;;;;;;;3.38;73.62;99447.28;2255209;78;21148;-75
2020/12/16 09:11:43;;;;;;;26.47;16.33;;;;;;;3.51;73.55;99440.66;2256154;78;22070;-76
2020/12/16 09:14:44;;;;;;;25.93;16.07;;;;;;;3.55;73.38;99438.70;2256417;78;21121;-74
2020/12/16 09:17:45;;;;;;;28.30;17.17;;;;;;;3.56;73.26;99439.59;2256327;78;21706;-78
2020/12/16 09:20:46;;;;;;;24.53;16.50;;;;;;;4.14;77.01;99441.95;2256221;78;21598;-77
2020/12/16 09:23:47;;;;;;;27.63;16.77;;;;;;;4.74;72.64;99432.24;2256293;79;21255;-77
2020/12/16 09:26:48;;;;;;;30.93;20.33;;;;;;;5.02;72.72;99433.03;2256016;78;21118;-76
2020/12/16 09:29:50;;;;;;;26.83;18.50;;;;;;;5.07;71.20;99436.70;2256300;79;21673;-75
2020/12/16 09:32:51;;;;;;;28.27;18.87;;;;;;;4.94;70.76;99437.41;2256584;78;21315;-76
2020/12/16 09:35:52;;;;;;;28.77;19.20;;;;;;;4.89;71.00;99444.08;2255868;78;21263;-77
2020/12/16 09:38:53;;;;;;;34.37;21.03;;;;;;;4.79;70.81;99449.25;2256301;78;21090;-77
2020/12/16 09:41:54;;;;;;;34.53;21.67;;;;;;;4.70;70.80;99451.03;2257238;78;21117;-76
2020/12/16 09:44:55;;;;;;;31.27;19.17;;;;;;;4.63;71.02;99455.45;2257409;78;21235;-75
2020/12/16 09:47:58;;;;;;;37.67;21.20;;;;;;;4.62;71.02;99452.80;2256567;78;21427;-76
2020/12/16 09:50:59;;;;;;;31.37;20.73;;;;;;;4.56;71.04;99453.41;2255306;78;21264;-75
2020/12/16 09:54:00;;;;;;;31.43;20.70;;;;;;;4.58;71.27;99452.19;2257472;79;21501;-76
2020/12/16 09:57:01;;;;;;;35.60;21.57;;;;;;;4.68;71.22;99455.25;2257265;78;21248;-75
2020/12/16 10:00:02;;;;;;;37.60;20.83;;;;;;;4.74;71.15;99458.11;2257627;78;21221;-77
2020/12/16 10:03:04;;;;;;;31.80;21.33;;;;;;;4.82;71.00;99453.27;2256915;78;21183;-77
2020/12/16 10:06:05;;;;;;;36.60;21.73;;;;;;;4.86;70.91;99465.52;2257026;79;21243;-76
2020/12/16 10:09:06;;;;;;;36.80;21.97;;;;;;;4.89;71.09;99461.78;2257545;79;21093;-76
2020/12/16 10:12:07;;;;;;;33.20;21.37;;;;;;;4.94;70.69;99456.39;2256874;78;21284;-77
2020/12/16 10:15:08;;;;;;;34.30;21.33;;;;;;;4.95;70.68;99455.58;2257218;78;21121;-77
2020/12/16 10:18:10;;;;;;;34.23;20.67;;;;;;;5.04;70.67;99454.69;2256325;78;21255;-76
2020/12/16 10:21:11;;;;;;;72.80;24.33;;;;;;;5.08;70.48;99455.29;2256508;78;21236;-77
2020/12/16 10:24:12;;;;;;;34.90;21.00;;;;;;;5.13;70.48;99458.96;2260620;78;21160;-77
2020/12/16 10:27:13;;;;;;;36.87;20.47;;;;;;;5.25;70.36;99468.09;2261348;79;21780;-76
2020/12/16 10:30:14;;;;;;;35.53;21.17;;;;;;;5.33;70.33;99469.31;2260664;78;21243;-76
2020/12/16 10:33:15;;;;;;;28.23;19.10;;;;;;;5.30;70.26;99461.41;2260236;78;21529;-77
2020/12/16 10:36:16;;;;;;;35.30;21.93;;;;;;;5.32;70.01;99461.06;2261469;79;21129;-76
2020/12/16 10:39:17;;;;;;;39.97;23.93;;;;;;;5.28;70.07;99457.88;2261639;78;21243;-76
2020/12/16 10:42:18;;;;;;;33.50;20.00;;;;;;;5.23;70.32;99467.15;2261268;78;21519;-77
2020/12/16 10:45:19;;;;;;;41.67;24.00;;;;;;;5.15;70.07;99461.61;2261904;78;21236;-77
2020/12/16 10:48:21;;;;;;;38.80;22.70;;;;;;;5.05;70.24;99457.75;2262259;78;21255;-77
2020/12/16 10:51:22;;;;;;;39.87;22.37;;;;;;;4.98;70.24;99458.30;2261603;78;21613;-76
2020/12/16 10:54:23;;;;;;;39.63;20.43;;;;;;;4.99;70.13;99459.18;2261416;78;21271;-76
2020/12/16 10:57:24;;;;;;;36.67;21.83;;;;;;;5.03;70.22;99453.32;2260528;79;21248;-76
2020/12/16 11:00:25;;;;;;;36.63;22.07;;;;;;;5.07;70.16;99454.81;2260169;78;21137;-76
2020/12/16 11:03:26;;;;;;;37.33;23.00;;;;;;;5.16;70.16;99460.80;2260268;79;21554;-78
2020/12/16 11:06:27;;;;;;;39.40;19.93;;;;;;;5.25;70.08;99462.92;2261270;78;21129;-77
2020/12/16 11:09:28;;;;;;;38.83;22.33;;;;;;;5.88;73.39;99463.81;2260565;79;21623;-77
2020/12/16 11:12:29;;;;;;;39.10;22.97;;;;;;;6.61;69.11;99458.94;2260589;78;21277;-76
2020/12/16 11:15:30;;;;;;;297.53;28.33;;;;;;;6.31;67.96;99459.55;2261224;78;21252;-76
2020/12/16 11:18:32;;;;;;;41.60;24.37;;;;;;;5.97;68.10;99465.50;2260632;78;21279;-76
2020/12/16 11:21:33;;;;;;;66.87;35.53;;;;;;;5.79;68.51;99461.73;2260060;78;21120;-76
2020/12/16 11:24:34;;;;;;;38.27;23.73;;;;;;;5.69;68.42;99459.18;2257192;78;21138;-76
2020/12/16 11:27:35;;;;;;;41.83;23.77;;;;;;;5.65;68.63;99460.29;2256100;78;21255;-76
2020/12/16 11:30:36;;;;;;;40.70;23.23;;;;;;;5.58;68.52;99459.16;2256917;79;21411;-76
2020/12/16 11:33:37;;;;;;;40.00;23.53;;;;;;;5.53;68.81;99456.78;2257651;78;21322;-76
2020/12/16 11:36:38;;;;;;;34.87;22.13;;;;;;;5.45;68.80;99468.53;2257270;78;21125;-76
2020/12/16 11:39:39;;;;;;;40.43;22.40;;;;;;;5.42;68.88;99457.63;2257090;79;21276;-76
2020/12/16 11:42:40;;;;;;;36.80;21.70;;;;;;;5.46;69.02;99453.47;2257025;78;21593;-76
2020/12/16 11:45:41;;;;;;;43.47;23.13;;;;;;;5.50;68.76;99457.95;2257011;78;21263;-75
2020/12/16 11:48:42;;;;;;;38.63;23.10;;;;;;;5.52;68.92;99459.31;2256433;78;21267;-76
2020/12/16 11:51:43;;;;;;;35.97;22.17;;;;;;;5.49;68.98;99460.48;2256122;78;21255;-77
2020/12/16 11:54:44;;;;;;;59.13;26.50;;;;;;;5.50;68.97;99469.60;2256671;79;21295;-77
2020/12/16 11:57:46;;;;;;;38.67;21.93;;;;;;;5.54;69.00;99470.20;2256118;78;21357;-78
2020/12/16 12:00:47;;;;;;;44.13;22.37;;;;;;;5.62;68.66;99464.05;2255559;78;21125;-76
2020/12/16 12:03:48;;;;;;;37.17;22.50;;;;;;;5.67;68.83;99462.53;2256033;78;21125;-77
2020/12/16 12:06:49;;;;;;;59.77;24.30;;;;;;;5.69;68.84;99455.30;2254947;78;21247;-78
2020/12/16 12:09:50;;;;;;;49.23;24.57;;;;;;;5.72;68.79;99458.01;2254971;78;21259;-77
2020/12/16 12:12:51;;;;;;;49.43;27.57;;;;;;;5.73;68.58;99455.89;2256934;78;21291;-77
2020/12/16 12:15:52;;;;;;;44.13;23.97;;;;;;;5.66;68.54;99462.05;2256918;78;21419;-77
2020/12/16 12:18:53;;;;;;;40.40;23.53;;;;;;;5.66;68.64;99461.64;2256586;79;21244;-77
2020/12/16 12:21:54;;;;;;;47.77;25.13;;;;;;;5.92;68.91;99469.62;2257105;78;21149;-77
2020/12/16 12:24:55;;;;;;;47.93;28.27;;;;;;;5.92;68.40;99472.21;2255923;79;21345;-77
2020/12/16 12:27:57;;;;;;;45.80;24.07;;;;;;;5.83;68.54;99476.58;2256293;78;21243;-78
2020/12/16 12:30:58;;;;;;;48.50;25.17;;;;;;;5.78;68.33;99478.09;2256281;79;21342;-77
2020/12/16 12:33:59;;;;;;;44.27;25.47;;;;;;;5.71;68.46;99474.38;2256906;78;21862;-77
2020/12/16 12:37:01;;;;;;;110.73;27.13;;;;;;;5.66;68.55;99473.71;2256173;78;21141;-77
2020/12/16 12:40:02;;;;;;;50.37;25.03;;;;;;;5.58;68.78;99467.33;2256621;78;21268;-77
2020/12/16 12:43:03;;;;;;;48.93;26.67;;;;;;;5.57;68.87;99470.33;2256276;78;21255;-76
2020/12/16 12:46:04;;;;;;;49.73;26.17;;;;;;;5.56;68.98;99465.97;2256294;79;21202;-77
2020/12/16 12:49:05;;;;;;;48.77;24.60;;;;;;;5.51;69.02;99462.31;2256882;78;21255;-76
2020/12/16 12:52:06;;;;;;;45.60;25.27;;;;;;;5.48;69.12;99460.89;2256529;78;21248;-76
2020/12/16 12:55:07;;;;;;;47.80;26.20;;;;;;;5.45;69.16;99472.41;2256244;78;21770;-77
2020/12/16 12:58:09;;;;;;;42.73;24.20;;;;;;;5.42;69.48;99469.28;2255393;78;21313;-76
2020/12/16 13:01:10;;;;;;;51.40;26.97;;;;;;;5.47;69.48;99470.77;2254969;79;21248;-77
2020/12/16 13:04:11;;;;;;;57.67;27.63;;;;;;;5.45;69.54;99473.70;2253871;78;21244;-77
2020/12/16 13:07:12;;;;;;;45.87;27.40;;;;;;;5.42;69.52;99477.46;2253653;78;21142;-77
2020/12/16 13:10:13;;;;;;;50.53;26.77;;;;;;;5.38;69.60;99472.98;2254906;78;21287;-77
2020/12/16 13:13:14;;;;;;;48.40;26.67;;;;;;;5.35;69.71;99478.91;2255372;78;21271;-77
2020/12/16 13:16:16;;;;;;;48.97;26.60;;;;;;;5.31;69.67;99480.89;2255680;79;21066;-77
2020/12/16 13:19:17;;;;;;;43.27;24.00;;;;;;;5.26;69.84;99484.11;2256232;79;21256;-76
2020/12/16 13:22:21;;;;;;;41.13;23.50;;;;;;;5.24;69.91;99475.39;2256561;78;21593;-77
2020/12/16 13:25:22;;;;;;;64.13;37.23;;;;;;;5.23;70.02;99478.80;2257282;78;21451;-77
2020/12/16 13:28:23;;;;;;;50.50;27.53;;;;;;;5.24;70.04;99481.86;2257325;78;21149;-77
2020/12/16 13:31:24;;;;;;;51.00;28.70;;;;;;;5.23;70.15;99472.33;2256872;78;21458;-79
2020/12/16 13:34:25;;;;;;;52.60;27.73;;;;;;;5.22;70.32;99475.73;2257836;78;22204;-77
2020/12/16 13:37:26;;;;;;;76.23;28.20;;;;;;;5.21;70.19;99468.37;2256343;78;21263;-75
2020/12/16 13:40:27;;;;;;;51.23;27.57;;;;;;;5.20;70.32;99472.16;2257178;78;21422;-78
2020/12/16 13:43:28;;;;;;;50.30;29.40;;;;;;;5.17;70.27;99478.50;2256582;78;21247;-77
2020/12/16 13:46:29;;;;;;;52.13;29.70;;;;;;;5.15;70.37;99473.67;2258088;78;21092;-80
2020/12/16 13:49:30;;;;;;;56.33;28.17;;;;;;;5.10;70.44;99474.77;2258409;78;21144;-79
2020/12/16 13:52:32;;;;;;;56.33;28.60;;;;;;;5.09;70.53;99477.76;2258911;78;21180;-77
2020/12/16 13:55:33;;;;;;;56.33;28.50;;;;;;;5.15;70.54;99480.14;2258224;78;21133;-76
2020/12/16 13:58:34;;;;;;;53.93;29.30;;;;;;;5.20;70.49;99482.52;2258105;78;21121;-77
2020/12/16 14:01:35;;;;;;;58.40;29.87;;;;;;;5.21;70.43;99480.44;2258406;78;21121;-76